Time;durP1;ratioP1;P1;durP2;ratioP2;P2;SDS_P1;SDS_P2;PMS_P1;PMS_P2;Temp;Humidity;BMP_temperature;BMP_pressure;BME280_temperature;BME280_humidity;BME280_pressure;Samples;Min_cycle;Max_cycle;Signal;HPM_P1;HPM_P2
2022/10/30 00:00:54;;;;;;;;;;;14.10;64.70;;;9.89;100.00;96105.00;4963041;28;20009;-46
2022/10/30 00:03:20;;;;;;;;;;;14.10;64.90;;;9.91;100.00;96104.78;4977902;28;20364;-51
2022/10/30 00:05:50;;;;;;;;;;;14.10;64.90;;;9.89;100.00;96104.22;4981565;28;20735;-51
2022/10/30 00:08:20;;;;;;;;;;;14.10;64.90;;;9.83;100.00;96092.69;4982854;28;19914;-49
2022/10/30 00:10:51;;;;;;;;;;;14.10;65.00;;;9.85;100.00;96089.78;4962890;28;19922;-49
2022/10/30 00:13:19;;;;;;;;;;;14.10;65.00;;;9.91;100.00;96091.47;4964539;28;19918;-49
2022/10/30 00:15:51;;;;;;;;;;;14.10;65.10;;;9.91;100.00;96094.13;4965856;28;19956;-46
2022/10/30 00:18:19;;;;;;;;;;;14.10;65.20;;;9.94;100.00;96093.63;4977268;28;19913;-49
2022/10/30 00:20:48;;;;;;;;;;;14.10;65.30;;;9.99;100.00;96090.22;4981111;28;22042;-47
2022/10/30 00:23:17;;;;;;;;;;;14.10;65.40;;;10.00;100.00;96089.97;4981185;28;19920;-46
2022/10/30 00:25:49;;;;;;;;;;;14.20;65.50;;;10.01;100.00;96085.47;4981110;28;19916;-47
2022/10/30 00:28:15;;;;;;;;;;;14.20;65.50;;;10.03;100.00;96088.66;4964553;28;19975;-47
2022/10/30 00:30:43;;;;;;;;;;;14.20;65.50;;;10.03;100.00;96091.31;4970110;28;19914;-45
2022/10/30 00:33:09;;;;;;;;;;;14.30;65.60;;;10.01;100.00;96082.78;4980306;28;19925;-53
2022/10/30 00:35:35;;;;;;;;;;;14.30;65.50;;;9.98;100.00;96091.28;4958591;28;19910;-53
2022/10/30 00:38:00;;;;;;;;;;;14.30;65.50;;;9.91;100.00;96089.59;4964738;28;20396;-50
2022/10/30 00:40:26;;;;;;;;;;;14.30;65.40;;;9.92;100.00;96087.75;4966627;28;20866;-54
2022/10/30 00:42:52;;;;;;;;;;;14.30;66.20;;;9.89;100.00;96093.56;4977657;28;19909;-50
2022/10/30 00:45:24;;;;;;;;;;;14.20;65.30;;;9.90;100.00;96090.66;4963431;28;19921;-50
2022/10/30 00:47:53;;;;;;;;;;;14.20;65.40;;;9.91;100.00;96086.16;4962641;28;20795;-53
2022/10/30 00:50:31;;;;;;;;;;;14.20;65.50;;;9.93;100.00;96086.69;4980382;28;19914;-48
2022/10/30 00:53:17;;;;;;;;;;;14.20;65.50;;;9.96;100.00;96083.53;4978054;28;19930;-48
2022/10/30 00:55:59;;;;;;;;;;;14.20;65.60;;;9.96;100.00;96080.88;4970452;28;20005;-50
2022/10/30 00:58:43;;;;;;;;;;;14.20;65.80;;;9.98;100.00;96076.09;4977259;28;20352;-47
2022/10/30 01:01:20;;;;;;;;;;;14.20;65.80;;;9.98;100.00;96070.00;4975273;28;19924;-53
2022/10/30 01:03:51;;;;;;;;;;;14.20;65.80;;;9.98;100.00;96070.78;4959311;28;19914;-48
2022/10/30 01:06:18;;;;;;;;;;;14.30;65.90;;;10.00;100.00;96067.84;4961607;28;19914;-50
2022/10/30 01:08:46;;;;;;;;;;;14.20;65.80;;;9.96;100.00;96060.41;4979197;28;19952;-47
2022/10/30 01:11:11;;;;;;;;;;;14.30;65.90;;;9.97;100.00;96063.88;4959179;28;19924;-46
2022/10/30 01:13:44;;;;;;;;;;;14.20;65.80;;;9.91;100.00;96057.66;4964151;28;20264;-49
2022/10/30 01:16:13;;;;;;;;;;;14.20;65.80;;;9.94;100.00;96065.16;4977924;28;20028;-49
2022/10/30 01:18:41;;;;;;;;;;;14.20;65.80;;;9.94;100.00;96059.03;4963727;28;19957;-49
2022/10/30 01:21:33;;;;;;;;;;;14.20;65.90;;;9.94;100.00;96059.03;4965012;28;19910;-51
2022/10/30 01:24:18;;;;;;;;;;;14.20;66.00;;;9.95;100.00;96050.00;4947878;28;19913;-50
2022/10/30 01:27:25;;;;;;;;;;;14.20;66.00;;;9.99;100.00;96058.28;4974422;28;19910;-49
2022/10/30 01:30:36;;;;;;;;;;;14.20;66.10;;;9.98;100.00;96056.69;4978176;28;20483;-50
2022/10/30 01:33:28;;;;;;;;;;;14.20;66.20;;;10.02;100.00;96052.47;4964834;28;19913;-49
2022/10/30 01:36:03;;;;;;;;;;;14.20;66.30;;;9.99;100.00;96050.28;4954132;28;20004;-49
2022/10/30 01:38:40;;;;;;;;;;;14.20;66.20;;;9.97;100.00;96045.25;4965185;28;19913;-50
2022/10/30 01:41:06;;;;;;;;;;;14.20;66.20;;;9.92;100.00;96048.63;4978063;28;20004;-55
2022/10/30 01:43:36;;;;;;;;;;;14.20;66.20;;;9.87;100.00;96045.94;4979097;28;19917;-51
2022/10/30 01:46:51;;;;;;;;;;;14.20;66.20;;;9.86;100.00;96043.50;4981638;28;19918;-47
2022/10/30 01:49:43;;;;;;;;;;;14.20;66.20;;;9.83;100.00;96039.47;4978351;28;19918;-45
2022/10/30 01:52:45;;;;;;;;;;;14.10;66.10;;;9.83;100.00;96039.47;4967458;28;19917;-56
2022/10/30 01:55:32;;;;;;;;;;;14.10;66.20;;;9.81;100.00;96041.59;4980333;28;19914;-47
2022/10/30 01:58:27;;;;;;;;;;;14.10;66.30;;;9.80;100.00;96036.50;4966990;28;19913;-55
2022/10/30 02:00:57;;;;;;;;;;;14.00;66.30;;;9.81;100.00;96035.44;4981385;28;20040;-51
2022/10/30 02:03:26;;;;;;;;;;;14.00;66.30;;;9.75;100.00;96031.94;4980052;28;19921;-49
2022/10/30 02:05:52;;;;;;;;;;;14.00;66.30;;;9.71;100.00;96028.97;4979802;28;19916;-54
2022/10/30 02:08:20;;;;;;;;;;;14.00;66.30;;;9.71;100.00;96033.47;4980856;28;20587;-52
2022/10/30 02:10:50;;;;;;;;;;;14.00;66.40;;;9.67;100.00;96027.84;4977616;28;19929;-53
2022/10/30 02:13:26;;;;;;;;;;;13.90;66.30;;;9.65;100.00;96027.31;4964639;28;19914;-47
2022/10/30 02:15:52;;;;;;;;;;;14.00;66.40;;;9.69;100.00;96030.28;4980548;28;19916;-56
2022/10/30 02:18:18;;;;;;;;;;;14.00;66.50;;;9.68;100.00;96036.63;4968010;28;19963;-52
2022/10/30 02:20:43;;;;;;;;;;;14.00;66.50;;;9.64;100.00;96031.00;4966587;28;19921;-49
2022/10/30 02:23:15;;;;;;;;;;;13.90;66.40;;;9.59;100.00;96030.94;4981169;28;19933;-53
2022/10/30 02:25:41;;;;;;;;;;;13.90;66.40;;;9.52;100.00;96029.50;4985480;28;19909;-49
2022/10/30 02:28:07;;;;;;;;;;;13.90;66.40;;;9.49;100.00;96031.63;4965138;28;19916;-53
2022/10/30 02:30:32;;;;;;;;;;;13.90;66.30;;;9.50;100.00;96032.44;4983385;28;19917;-46
2022/10/30 02:32:58;;;;;;;;;;;13.80;66.30;;;9.45;100.00;96033.16;4966877;28;19922;-51
2022/10/30 02:35:24;;;;;;;;;;;13.80;66.30;;;9.41;100.00;96033.91;4965349;28;19949;-47
2022/10/30 02:37:50;;;;;;;;;;;13.80;66.30;;;9.40;100.00;96029.63;4963945;28;20056;-51
2022/10/30 02:40:16;;;;;;;;;;;13.80;66.40;;;9.37;100.00;96038.09;4967636;28;19921;-51
2022/10/30 02:42:41;;;;;;;;;;;13.70;66.30;;;9.30;100.00;96032.94;4967064;28;20374;-52
2022/10/30 02:45:08;;;;;;;;;;;13.70;66.30;;;9.31;100.00;96033.75;4966957;28;19910;-52
2022/10/30 02:47:34;;;;;;;;;;;13.70;66.40;;;9.28;100.00;96021.78;4967353;28;19967;-51
2022/10/30 02:50:00;;;;;;;;;;;13.60;66.40;;;9.24;100.00;96017.97;4979542;28;19914;-50
2022/10/30 02:52:25;;;;;;;;;;;13.60;66.40;;;9.21;100.00;96018.47;4963685;28;19918;-54
2022/10/30 02:54:51;;;;;;;;;;;13.50;66.40;;;9.21;100.00;96015.81;4967559;28;20478;-49
2022/10/30 02:57:17;;;;;;;;;;;13.50;66.50;;;9.20;100.00;96019.53;4981054;28;19918;-50
2022/10/30 02:59:43;;;;;;;;;;;13.50;66.70;;;9.17;100.00;96017.34;4968128;28;19909;-48
2022/10/30 03:02:08;;;;;;;;;;;13.50;66.80;;;9.16;100.00;96011.25;4980212;28;20372;-52
2022/10/30 03:04:34;;;;;;;;;;;13.50;66.80;;;9.14;100.00;96008.00;4970499;28;19914;-48
2022/10/30 03:07:00;;;;;;;;;;;13.50;66.90;;;9.19;100.00;96010.75;4979948;28;20045;-55
2022/10/30 03:09:25;;;;;;;;;;;13.50;67.00;;;9.21;100.00;96006.00;4979363;28;20699;-53
2022/10/30 03:11:54;;;;;;;;;;;13.50;67.10;;;9.21;100.00;96008.66;4967758;28;20315;-57
2022/10/30 03:14:20;;;;;;;;;;;13.50;67.10;;;9.18;100.00;96008.31;4966435;28;20327;-55
2022/10/30 03:16:51;;;;;;;;;;;13.60;67.00;;;9.17;100.00;96009.38;4963710;28;20041;-55
2022/10/30 03:19:20;;;;;;;;;;;13.50;67.00;;;9.21;100.00;96010.50;4966158;28;19961;-56
2022/10/30 03:21:48;;;;;;;;;;;13.50;67.00;;;9.19;100.00;96001.97;4980248;28;19925;-56
2022/10/30 03:24:14;;;;;;;;;;;13.50;67.00;;;9.19;100.00;96013.41;4963912;28;19913;-52
2022/10/30 03:26:46;;;;;;;;;;;13.50;67.00;;;9.19;100.00;96012.59;4963174;28;20396;-53
2022/10/30 03:29:13;;;;;;;;;;;13.50;67.00;;;9.15;100.00;96012.28;4965789;28;19996;-56
2022/10/30 03:31:38;;;;;;;;;;;13.50;67.00;;;9.13;100.00;96006.41;4967664;28;19928;-57
2022/10/30 03:34:04;;;;;;;;;;;13.50;67.00;;;9.14;100.00;96012.53;4942906;28;19921;-54
2022/10/30 03:36:30;;;;;;;;;;;13.50;67.10;;;9.16;100.00;96010.44;4959754;28;20056;-51
2022/10/30 03:38:56;;;;;;;;;;;13.50;67.20;;;9.17;100.00;96012.03;4962859;28;20339;-52
2022/10/30 03:41:24;;;;;;;;;;;13.50;67.20;;;9.16;100.00;96015.75;4983810;28;20009;-55
2022/10/30 03:43:53;;;;;;;;;;;13.50;67.20;;;9.16;100.00;96013.09;4966120;28;19937;-56
2022/10/30 03:46:25;;;;;;;;;;;13.50;67.20;;;9.11;100.00;96011.16;4963952;28;20332;-53
2022/10/30 03:48:53;;;;;;;;;;;13.50;67.10;;;9.11;100.00;96019.13;4965873;28;19917;-51
2022/10/30 03:51:27;;;;;;;;;;;13.50;67.10;;;9.13;100.00;96021.56;4926497;28;19968;-54
2022/10/30 03:53:56;;;;;;;;;;;13.50;67.20;;;9.09;100.00;96017.75;4971306;28;20395;-50
2022/10/30 03:56:24;;;;;;;;;;;13.50;67.20;;;9.04;100.00;96018.50;4963350;28;20369;-53
2022/10/30 03:58:50;;;;;;;;;;;13.40;67.00;;;9.01;100.00;96019.78;4966107;28;19914;-56
2022/10/30 04:01:19;;;;;;;;;;;13.40;67.00;;;8.92;100.00;96010.63;4966018;28;20359;-49
2022/10/30 04:03:45;;;;;;;;;;;13.40;67.00;;;8.89;100.00;96016.41;4964320;28;20431;-51
2022/10/30 04:06:11;;;;;;;;;;;13.40;67.00;;;8.87;100.00;96013.22;4964417;28;19927;-53
2022/10/30 04:08:39;;;;;;;;;;;13.30;66.90;;;8.85;100.00;96012.66;4977066;28;19928;-53
2022/10/30 04:11:10;;;;;;;;;;;13.30;66.90;;;8.88;100.00;96011.38;4964792;28;19924;-55
2022/10/30 04:13:36;;;;;;;;;;;13.30;67.10;;;8.87;100.00;96023.00;4960520;28;20280;-51
2022/10/30 04:16:03;;;;;;;;;;;13.20;67.10;;;8.85;100.00;96023.28;4977784;28;19957;-53
2022/10/30 04:18:29;;;;;;;;;;;13.20;67.20;;;8.86;100.00;96016.91;4963466;28;19910;-55
2022/10/30 04:20:57;;;;;;;;;;;13.20;67.20;;;8.87;100.00;96015.88;4981772;28;20352;-52
2022/10/30 04:23:23;;;;;;;;;;;13.20;67.30;;;8.89;100.00;96024.38;4981316;28;19910;-54
2022/10/30 04:25:59;;;;;;;;;;;13.20;67.40;;;8.90;100.00;96025.19;4963235;28;19910;-51
2022/10/30 04:28:27;;;;;;;;;;;13.20;67.40;;;8.88;100.00;96024.66;4975006;28;20665;-50
2022/10/30 04:30:53;;;;;;;;;;;13.20;67.30;;;8.81;100.00;96027.47;4964160;28;19914;-50
2022/10/30 04:33:19;;;;;;;;;;;13.20;67.30;;;8.73;100.00;96027.88;4966363;28;19920;-48
2022/10/30 04:35:47;;;;;;;;;;;13.20;68.10;;;8.79;100.00;96025.03;4956096;28;19913;-50
2022/10/30 04:38:18;;;;;;;;;;;13.20;67.40;;;8.73;100.00;96030.53;4962549;28;19910;-55
2022/10/30 04:40:44;;;;;;;;;;;13.10;67.30;;;8.72;100.00;96027.06;4964768;28;20392;-53
2022/10/30 04:43:11;;;;;;;;;;;13.10;67.30;;;8.70;100.00;96028.34;4960673;28;19916;-52
2022/10/30 04:45:39;;;;;;;;;;;13.10;67.40;;;8.69;100.00;96029.41;4964171;28;19932;-52
2022/10/30 04:48:13;;;;;;;;;;;13.10;67.40;;;8.74;100.00;96027.63;4965837;28;20012;-54
2022/10/30 04:50:42;;;;;;;;;;;13.10;67.50;;;8.69;100.00;96019.56;4964534;28;19969;-51
2022/10/30 04:53:15;;;;;;;;;;;13.10;67.50;;;8.66;100.00;96024.56;4955474;28;20393;-54
2022/10/30 04:55:44;;;;;;;;;;;13.10;67.40;;;8.58;100.00;96013.28;4963292;28;19916;-54
2022/10/30 04:58:11;;;;;;;;;;;13.00;67.40;;;8.56;100.00;96017.25;4976443;28;19969;-54
2022/10/30 05:00:37;;;;;;;;;;;13.00;67.40;;;8.53;100.00;96012.41;4977424;28;19945;-51
2022/10/30 05:03:03;;;;;;;;;;;13.00;67.50;;;8.50;100.00;96012.91;4968958;28;19924;-51
2022/10/30 05:05:30;;;;;;;;;;;13.00;67.50;;;8.49;100.00;96009.44;4964201;28;19914;-52
2022/10/30 05:07:56;;;;;;;;;;;12.90;67.50;;;8.49;100.00;96009.44;4962281;28;20016;-52
2022/10/30 05:10:22;;;;;;;;;;;12.90;67.60;;;8.49;100.00;96009.44;4977382;28;20000;-49
2022/10/30 05:12:52;;;;;;;;;;;12.90;67.60;;;8.47;100.00;96005.41;4963739;28;19968;-51
2022/10/30 05:15:18;;;;;;;;;;;12.90;67.60;;;8.46;100.00;96011.75;4960911;28;20353;-53
2022/10/30 05:17:52;;;;;;;;;;;12.90;67.60;;;8.42;100.00;96000.81;4978239;28;19913;-54
2022/10/30 05:20:19;;;;;;;;;;;12.80;67.60;;;8.39;100.00;96001.28;4976677;28;19979;-52
2022/10/30 05:22:45;;;;;;;;;;;12.80;67.60;;;8.33;100.00;96000.34;4978022;28;20964;-53
2022/10/30 05:25:11;;;;;;;;;;;12.80;67.60;;;8.36;100.00;95996.44;4968656;28;19964;-54
2022/10/30 05:27:40;;;;;;;;;;;12.80;67.70;;;8.36;100.00;95996.44;4964677;28;20542;-56
2022/10/30 05:30:06;;;;;;;;;;;12.80;67.70;;;8.35;100.00;96003.59;4957567;28;19910;-46
2022/10/30 05:32:32;;;;;;;;;;;12.80;67.80;;;8.32;100.00;95997.97;4962738;28;19909;-54
2022/10/30 05:34:58;;;;;;;;;;;12.70;67.70;;;8.28;100.00;95997.63;4979303;28;19920;-49
2022/10/30 05:37:23;;;;;;;;;;;12.70;67.70;;;8.24;100.00;95996.50;4978705;28;20008;-50
2022/10/30 05:39:49;;;;;;;;;;;12.70;67.70;;;8.22;100.00;95989.84;4976733;28;20386;-56
2022/10/30 05:42:15;;;;;;;;;;;12.70;67.70;;;8.19;100.00;95998.28;4965289;28;19940;-55
2022/10/30 05:44:43;;;;;;;;;;;12.70;67.60;;;8.14;100.00;95995.50;4962337;28;22118;-52
2022/10/30 05:47:11;;;;;;;;;;;12.60;68.40;;;8.08;100.00;96003.41;4963705;28;19909;-53
2022/10/30 05:49:36;;;;;;;;;;;12.60;67.60;;;8.06;100.00;96008.13;4981776;28;20368;-49
2022/10/30 05:52:02;;;;;;;;;;;12.60;67.70;;;8.05;100.00;96008.34;4961708;28;19917;-47
2022/10/30 05:54:28;;;;;;;;;;;12.60;67.80;;;8.02;100.00;96000.88;4962347;28;19922;-51
2022/10/30 05:56:56;;;;;;;;;;;12.60;67.80;;;8.04;100.00;96001.44;4965159;28;20656;-50
2022/10/30 05:59:22;;;;;;;;;;;12.60;67.80;;;8.02;100.00;96003.53;4963415;28;19916;-50
2022/10/30 06:01:48;;;;;;;;;;;12.50;67.80;;;7.98;100.00;96005.84;4963649;28;20295;-48
2022/10/30 06:04:13;;;;;;;;;;;12.50;67.80;;;7.98;100.00;96002.41;4977040;28;20492;-52
2022/10/30 06:06:42;;;;;;;;;;;12.50;67.80;;;7.97;100.00;96008.75;4967971;28;19910;-49
2022/10/30 06:09:11;;;;;;;;;;;12.50;67.70;;;7.94;100.00;96017.19;4963447;28;19937;-48
2022/10/30 06:11:40;;;;;;;;;;;12.50;67.70;;;7.94;100.00;96010.03;4964841;28;19953;-48
2022/10/30 06:14:06;;;;;;;;;;;12.50;67.80;;;8.01;100.00;96013.34;4964524;28;19946;-49
2022/10/30 06:16:31;;;;;;;;;;;12.50;67.90;;;8.06;100.00;96008.13;4966073;28;20048;-47
2022/10/30 06:18:57;;;;;;;;;;;12.50;68.00;;;8.04;100.00;96002.25;4977984;28;19956;-50
2022/10/30 06:21:23;;;;;;;;;;;12.50;68.00;;;8.01;100.00;96012.53;4965470;28;19909;-50
2022/10/30 06:23:48;;;;;;;;;;;12.50;68.00;;;7.99;100.00;96011.97;4961049;28;20356;-47
2022/10/30 06:26:14;;;;;;;;;;;12.40;67.80;;;7.95;100.00;96018.78;4976656;28;19918;-48
2022/10/30 06:28:40;;;;;;;;;;;12.40;67.80;;;7.93;100.00;96019.03;4963641;28;19922;-48
2022/10/30 06:31:06;;;;;;;;;;;12.50;67.80;;;7.95;100.00;96016.13;4967218;28;19914;-48
2022/10/30 06:33:32;;;;;;;;;;;12.50;68.00;;;7.96;100.00;96015.91;4961901;28;20354;-51
2022/10/30 06:35:58;;;;;;;;;;;12.50;68.00;;;7.97;100.00;96008.75;4974414;28;20356;-47
2022/10/30 06:38:23;;;;;;;;;;;12.50;68.00;;;8.00;100.00;96014.38;4979474;28;19909;-48
2022/10/30 06:40:49;;;;;;;;;;;12.50;68.00;;;8.02;100.00;96014.97;4981764;28;19909;-46
2022/10/30 06:43:15;;;;;;;;;;;12.60;68.00;;;8.02;100.00;96014.13;4964392;28;20560;-49
2022/10/30 06:45:41;;;;;;;;;;;12.60;67.90;;;8.03;100.00;96019.22;4962132;28;20000;-50
2022/10/30 06:48:08;;;;;;;;;;;12.60;67.90;;;8.04;100.00;96012.84;4967000;28;19992;-47
2022/10/30 06:50:34;;;;;;;;;;;12.70;67.90;;;8.08;100.00;96019.31;4962951;28;19914;-51
2022/10/30 06:52:59;;;;;;;;;;;12.70;67.80;;;8.13;100.00;96015.94;4964051;28;19928;-46
2022/10/30 06:55:28;;;;;;;;;;;12.80;67.90;;;8.22;100.00;96027.00;4965543;28;19914;-49
2022/10/30 06:57:57;;;;;;;;;;;12.80;67.90;;;8.28;100.00;96024.19;4983714;28;19913;-47
2022/10/30 07:00:29;;;;;;;;;;;12.90;68.00;;;8.32;100.00;96024.50;4986218;28;19909;-48
2022/10/30 07:03:00;;;;;;;;;;;12.90;67.90;;;8.38;100.00;96014.78;4966878;28;20285;-47
2022/10/30 07:05:29;;;;;;;;;;;13.00;67.90;;;8.46;100.00;96020.53;4979203;28;19961;-47
2022/10/30 07:07:56;;;;;;;;;;;13.10;68.00;;;8.54;100.00;96021.97;4981244;28;19914;-48
2022/10/30 07:10:22;;;;;;;;;;;13.20;68.00;;;8.63;100.00;96017.88;4978444;28;19926;-48
2022/10/30 07:12:53;;;;;;;;;;;13.30;68.00;;;8.74;100.00;96027.63;4960195;28;19909;-47
2022/10/30 07:15:22;;;;;;;;;;;13.40;68.10;;;8.86;100.00;96027.53;4975364;28;19917;-47
2022/10/30 07:17:56;;;;;;;;;;;13.50;68.00;;;8.95;100.00;96028.72;4970435;28;19997;-50
2022/10/30 07:20:23;;;;;;;;;;;13.60;68.00;;;9.09;100.00;96031.03;4967013;28;20450;-50
2022/10/30 07:22:49;;;;;;;;;;;13.80;68.10;;;9.19;100.00;96036.53;4981229;28;19909;-53
2022/10/30 07:25:15;;;;;;;;;;;13.90;68.00;;;9.26;100.00;96042.47;4965893;28;19918;-52
2022/10/30 07:28:01;;;;;;;;;;;14.10;67.90;;;9.34;100.00;96041.22;4965455;28;19979;-47
2022/10/30 07:30:27;;;;;;;;;;;14.10;67.70;;;9.42;100.00;96041.63;4966090;28;19913;-50
2022/10/30 07:33:05;;;;;;;;;;;14.30;67.70;;;9.53;100.00;96044.41;4966290;28;19929;-50
2022/10/30 07:35:34;;;;;;;;;;;14.40;67.60;;;9.62;100.00;96038.44;4980895;28;20007;-48
2022/10/30 07:38:13;;;;;;;;;;;14.60;67.60;;;9.72;100.00;96040.41;4979427;28;20020;-50
2022/10/30 07:40:38;;;;;;;;;;;14.70;67.50;;;9.75;100.00;96034.59;4963200;28;19937;-51
2022/10/30 07:43:05;;;;;;;;;;;14.80;67.30;;;9.82;100.00;96043.19;4959194;28;20068;-48
2022/10/30 07:45:32;;;;;;;;;;;14.90;67.20;;;9.91;100.00;96040.91;4963152;28;19917;-53
2022/10/30 07:47:58;;;;;;;;;;;15.00;67.80;;;10.02;100.00;96039.94;4978244;28;19918;-47
2022/10/30 07:50:24;;;;;;;;;;;15.00;66.90;;;10.15;100.00;96041.41;4980931;28;19918;-51
2022/10/30 07:52:50;;;;;;;;;;;15.30;67.00;;;10.29;100.00;96048.00;4961492;28;19910;-50
2022/10/30 07:55:16;;;;;;;;;;;15.50;66.90;;;10.47;100.00;96049.50;4964348;28;19967;-50
2022/10/30 07:57:42;;;;;;;;;;;15.80;66.70;;;10.73;100.00;96047.06;4964418;28;19945;-47
2022/10/30 08:00:12;;;;;;;;;;;16.10;66.50;;;10.91;100.00;96044.03;4982593;28;20327;-50
2022/10/30 08:02:41;;;;;;;;;;;16.40;66.30;;;11.13;100.00;96053.78;4960434;28;19918;-49
2022/10/30 08:05:08;;;;;;;;;;;16.70;66.10;;;11.37;100.00;96054.19;4963962;28;19964;-48
2022/10/30 08:07:36;;;;;;;;;;;17.10;65.90;;;11.63;100.00;96052.47;4964367;28;19918;-53
2022/10/30 08:10:04;;;;;;;;;;;17.50;65.70;;;11.99;100.00;96050.78;4964813;28;19953;-50
2022/10/30 08:12:33;;;;;;;;;;;18.00;65.50;;;12.28;100.00;96048.44;4982441;28;19917;-48
2022/10/30 08:15:00;;;;;;;;;;;18.40;65.20;;;12.55;100.00;96050.13;4963434;28;19983;-48
2022/10/30 08:17:26;;;;;;;;;;;18.80;64.90;;;12.85;100.00;96055.50;4961823;28;20281;-49
2022/10/30 08:19:52;;;;;;;;;;;19.30;64.50;;;13.11;100.00;96058.16;4979402;28;20366;-49
2022/10/30 08:22:18;;;;;;;;;;;19.70;64.10;;;13.35;100.00;96055.75;4962652;28;20012;-50
2022/10/30 08:24:44;;;;;;;;;;;20.00;63.70;;;13.50;99.66;96054.91;4978967;28;19913;-51
2022/10/30 08:27:10;;;;;;;;;;;20.20;63.30;;;13.62;98.51;96061.56;4969207;28;20051;-53
2022/10/30 08:29:41;;;;;;;;;;;20.30;63.00;;;13.66;97.16;96056.47;4962248;28;20399;-53
2022/10/30 08:32:10;;;;;;;;;;;20.40;62.70;;;13.77;97.10;96068.75;4965745;28;19910;-51
2022/10/30 08:34:35;;;;;;;;;;;20.50;62.50;;;13.93;96.49;96066.84;4967662;28;19917;-50
2022/10/30 08:37:01;;;;;;;;;;;20.50;62.30;;;14.04;95.42;96071.09;4966524;28;19917;-49
2022/10/30 08:39:27;;;;;;;;;;;20.60;62.20;;;14.20;94.29;96068.34;4963515;28;19914;-51
2022/10/30 08:41:53;;;;;;;;;;;20.70;61.90;;;14.29;93.44;96066.66;4961477;28;19914;-51
2022/10/30 08:44:21;;;;;;;;;;;20.80;61.80;;;14.46;93.27;96066.31;4964079;28;19917;-51
2022/10/30 08:46:53;;;;;;;;;;;20.90;61.60;;;14.57;91.13;96059.84;4982334;28;19913;-50
2022/10/30 08:49:19;;;;;;;;;;;21.10;61.60;;;14.69;91.18;96056.81;4965260;28;19910;-54
2022/10/30 08:51:45;;;;;;;;;;;21.30;61.50;;;14.83;91.30;96057.00;4965923;28;19909;-48
2022/10/30 08:54:10;;;;;;;;;;;21.30;61.30;;;14.94;90.33;96063.88;4979052;28;19913;-53
2022/10/30 08:56:36;;;;;;;;;;;21.50;62.00;;;14.98;89.90;96054.22;4964118;28;19936;-49
2022/10/30 08:59:02;;;;;;;;;;;21.60;60.90;;;15.03;89.13;96063.00;4964769;28;19921;-53
2022/10/30 09:01:28;;;;;;;;;;;21.70;60.70;;;15.25;90.35;96057.16;4976944;28;19913;-48
2022/10/30 09:03:53;;;;;;;;;;;21.80;60.60;;;15.37;88.92;96056.00;4960964;28;19988;-52
2022/10/30 09:06:19;;;;;;;;;;;21.90;60.40;;;15.52;87.99;96047.81;4963719;28;19910;-47
2022/10/30 09:08:46;;;;;;;;;;;22.10;60.20;;;15.72;87.75;96052.16;4963411;28;19913;-47
2022/10/30 09:11:11;;;;;;;;;;;22.30;60.10;;;15.87;85.67;96054.69;5014709;23;20370;-54
2022/10/30 09:13:37;;;;;;;;;;;22.40;60.00;;;16.06;85.62;96046.66;5002105;28;19920;-48
2022/10/30 09:16:04;;;;;;;;;;;22.70;59.80;;;16.14;84.05;96047.94;5001396;28;19909;-56
2022/10/30 09:18:30;;;;;;;;;;;22.80;59.60;;;16.17;83.53;96047.34;4995412;28;19916;-50
2022/10/30 09:20:56;;;;;;;;;;;22.90;59.40;;;16.30;83.18;96041.25;4941325;28;23826;-53
2022/10/30 09:23:22;;;;;;;;;;;23.00;59.20;;;16.47;82.29;96040.75;4981379;28;20451;-51
2022/10/30 09:25:47;;;;;;;;;;;23.20;59.10;;;16.60;81.28;96050.78;4983768;28;19909;-50
2022/10/30 09:28:13;;;;;;;;;;;23.30;58.90;;;16.61;82.15;96047.00;4972465;28;20506;-52
2022/10/30 09:30:39;;;;;;;;;;;23.40;58.70;;;16.72;81.01;96047.66;4976996;28;19913;-50
2022/10/30 09:33:05;;;;;;;;;;;23.50;58.50;;;16.93;80.20;96050.06;4982934;28;19948;-56
2022/10/30 09:35:31;;;;;;;;;;;23.60;58.30;;;17.03;79.00;96049.91;4999842;28;19920;-53
2022/10/30 09:37:57;;;;;;;;;;;23.80;58.10;;;17.15;78.95;96052.13;4986045;28;19914;-54
2022/10/30 09:40:43;;;;;;;;;;;24.00;57.90;;;17.10;77.86;96056.50;4981765;28;19910;-54
2022/10/30 09:43:45;;;;;;;;;;;24.20;57.60;;;17.19;77.70;96062.00;4965663;28;20295;-53
2022/10/30 09:47:11;;;;;;;;;;;24.30;57.40;;;17.14;77.32;96061.28;4985963;28;21697;-52
2022/10/30 09:50:02;;;;;;;;;;;24.30;57.80;;;16.86;77.94;96056.63;4927881;28;19918;-52
2022/10/30 09:52:53;;;;;;;;;;;24.30;57.00;;;16.83;78.64;96054.53;4941384;28;19941;-51
2022/10/30 09:56:05;;;;;;;;;;;24.20;56.90;;;16.76;78.64;96059.44;4938438;28;20382;-51
2022/10/30 09:58:39;;;;;;;;;;;24.20;56.90;;;16.83;78.66;96054.53;4943428;28;20607;-51
2022/10/30 10:01:33;;;;;;;;;;;24.20;56.70;;;16.88;79.08;96061.69;4939799;28;20004;-54
2022/10/30 10:04:17;;;;;;;;;;;24.40;56.60;;;17.05;78.33;96056.59;4941111;28;19910;-52
2022/10/30 10:07:01;;;;;;;;;;;24.50;56.40;;;17.40;77.44;96059.78;4945203;28;19917;-51
2022/10/30 10:09:32;;;;;;;;;;;24.70;56.50;;;17.69;76.07;96066.81;4944434;28;20002;-51
2022/10/30 10:12:10;;;;;;;;;;;24.80;56.40;;;17.72;74.58;96064.31;4947696;28;20456;-50
2022/10/30 10:14:44;;;;;;;;;;;24.90;56.40;;;17.77;74.92;96058.84;4915417;28;19922;-55
2022/10/30 10:17:19;;;;;;;;;;;24.80;56.20;;;17.71;74.54;96053.84;4922255;28;20011;-53
2022/10/30 10:20:02;;;;;;;;;;;24.80;56.20;;;17.84;74.29;96058.47;4939445;28;19917;-49
2022/10/30 10:22:49;;;;;;;;;;;24.80;56.00;;;17.78;74.06;96059.66;4997794;28;19921;-54
2022/10/30 10:25:19;;;;;;;;;;;24.80;55.90;;;17.75;74.74;96057.53;4985951;28;19910;-50
2022/10/30 10:28:19;;;;;;;;;;;24.90;55.80;;;17.89;73.71;96052.16;4998928;28;19917;-52
2022/10/30 10:31:17;;;;;;;;;;;24.80;55.80;;;18.08;73.03;96052.06;4963063;28;19924;-51
2022/10/30 10:34:13;;;;;;;;;;;25.00;55.70;;;18.37;72.12;96057.13;4979764;28;20012;-54
2022/10/30 10:37:07;;;;;;;;;;;25.20;55.60;;;18.63;70.93;96060.06;4980834;28;19913;-53
2022/10/30 10:39:46;;;;;;;;;;;25.30;55.60;;;18.79;70.62;96055.16;4982530;28;19913;-51
2022/10/30 10:42:58;;;;;;;;;;;25.40;55.50;;;18.70;70.68;96053.13;4982387;28;20014;-51
2022/10/30 10:45:42;;;;;;;;;;;25.50;55.20;;;18.80;70.59;96048.63;4949674;28;19909;-53
2022/10/30 10:48:36;;;;;;;;;;;25.60;55.10;;;19.06;69.90;96046.94;4945371;28;20012;-51
2022/10/30 10:51:24;;;;;;;;;;;26.00;54.90;;;19.12;69.08;96037.63;4948513;28;20011;-53
2022/10/30 10:53:58;;;;;;;;;;;26.30;54.70;;;19.02;69.26;96039.75;4967328;28;19917;-51
2022/10/30 10:56:39;;;;;;;;;;;26.40;54.40;;;19.41;69.15;96047.94;4950110;28;19965;-51
2022/10/30 10:59:25;;;;;;;;;;;26.60;54.30;;;19.70;66.66;96038.56;4966386;28;19909;-50
2022/10/30 11:02:42;;;;;;;;;;;26.90;54.10;;;19.94;66.58;96027.38;4947545;28;19909;-54
2022/10/30 11:05:17;;;;;;;;;;;27.20;53.80;;;20.19;65.00;96028.56;4969503;28;21175;-56
2022/10/30 11:07:49;;;;;;;;;;;27.70;53.60;;;20.36;64.08;96025.09;4965142;28;19913;-53
2022/10/30 11:10:19;;;;;;;;;;;27.80;53.30;;;20.26;64.61;96028.09;4944609;28;21002;-53
2022/10/30 11:12:44;;;;;;;;;;;28.00;53.00;;;20.39;63.97;96031.78;4968922;28;20052;-53
2022/10/30 11:15:28;;;;;;;;;;;28.10;52.70;;;20.19;64.40;96025.88;4965234;28;20407;-53
2022/10/30 11:18:05;;;;;;;;;;;28.20;52.40;;;20.43;63.49;96030.03;4991651;28;19909;-52
2022/10/30 11:21:07;;;;;;;;;;;28.30;52.20;;;20.81;62.66;96019.44;4972734;28;19992;-52
2022/10/30 11:23:47;;;;;;;;;;;28.50;52.10;;;20.87;62.02;96015.44;4983185;28;20224;-51
2022/10/30 11:26:19;;;;;;;;;;;28.50;51.90;;;20.99;61.67;96018.28;4966437;28;19910;-54
2022/10/30 11:29:14;;;;;;;;;;;28.40;51.70;;;21.09;61.50;96014.47;4995531;28;19909;-54
2022/10/30 11:31:42;;;;;;;;;;;28.40;51.70;;;21.15;60.79;96012.34;4980634;28;20143;-50
2022/10/30 11:34:17;;;;;;;;;;;28.30;51.50;;;21.10;60.69;96016.03;4980087;28;19953;-52
2022/10/30 11:36:49;;;;;;;;;;;28.30;51.40;;;21.10;61.17;96013.34;4996615;28;19917;-54